Time;durP1;ratioP1;P1;durP2;ratioP2;P2;SDS_P1;SDS_P2;PMS_P1;PMS_P2;Temp;Humidity;BMP_temperature;BMP_pressure;BME280_temperature;BME280_humidity;BME280_pressure;Samples;Min_cycle;Max_cycle;Signal;HPM_P1;HPM_P2
2023/12/14 00:02:12;;;;;;;34.40;20.00;;;;;;;3.39;94.21;99492.21;110348;281;38624;-71
2023/12/14 00:04:48;;;;;;;34.90;19.40;;;;;;;3.34;93.91;99493.20;110159;282;38470;-71
2023/12/14 00:07:23;;;;;;;33.30;18.00;;;;;;;3.28;94.07;99494.86;110318;282;38420;-71
2023/12/14 00:13:22;;;;;;;32.10;18.90;;;;;;;3.31;94.43;99496.70;110299;282;38282;-71
2023/12/14 00:15:56;;;;;;;34.20;19.00;;;;;;;3.32;94.47;99498.40;110216;282;154488;-73
2023/12/14 00:21:42;;;;;;;32.20;18.40;;;;;;;3.29;94.44;99504.67;109944;280;38195;-71
2023/12/14 00:24:27;;;;;;;29.40;17.90;;;;;;;3.31;94.61;99506.36;110296;281;38261;-71
2023/12/14 00:27:06;;;;;;;32.20;19.50;;;;;;;3.27;94.20;99508.52;110170;282;154424;-71
2023/12/14 00:29:46;;;;;;;31.50;19.80;;;;;;;3.26;94.29;99514.91;110155;282;40805;-72
2023/12/14 00:32:26;;;;;;;30.50;18.90;;;;;;;3.27;94.52;99519.88;110191;282;38191;-72
2023/12/14 00:35:01;;;;;;;29.90;18.00;;;;;;;3.29;94.67;99521.05;110208;282;38736;-73
2023/12/14 00:37:35;;;;;;;31.70;19.10;;;;;;;3.28;94.56;99522.80;110295;281;38798;-73
2023/12/14 00:40:14;;;;;;;32.00;19.30;;;;;;;3.27;94.58;99526.08;110068;282;155463;-72
2023/12/14 00:42:48;;;;;;;30.30;18.40;;;;;;;3.26;94.40;99525.77;110369;281;38194;-72
2023/12/14 00:45:24;;;;;;;30.70;17.40;;;;;;;3.26;94.42;99528.02;110051;282;153936;-71
2023/12/14 00:47:58;;;;;;;31.40;18.90;;;;;;;3.28;94.61;99530.02;110238;283;38403;-72
2023/12/14 00:50:32;;;;;;;27.90;17.50;;;;;;;3.33;94.93;99532.33;110071;283;153981;-72
2023/12/14 00:53:10;;;;;;;30.30;18.60;;;;;;;3.35;94.79;99535.23;110178;283;38201;-72
2023/12/14 00:55:45;;;;;;;32.60;19.20;;;;;;;3.34;94.67;99535.41;110201;283;39357;-72
2023/12/14 00:58:20;;;;;;;32.70;19.30;;;;;;;3.35;94.67;99540.56;110110;283;175106;-72
2023/12/14 01:01:38;;;;;;;30.30;17.90;;;;;;;3.38;94.50;99542.39;108205;270;603829;-73
2023/12/14 01:04:17;;;;;;;38.20;21.80;;;;;;;3.36;94.37;99544.35;110267;251;153337;-71
2023/12/14 01:06:51;;;;;;;40.60;23.90;;;;;;;3.30;94.17;99543.78;110376;252;38947;-72
2023/12/14 01:09:26;;;;;;;37.70;21.90;;;;;;;3.24;94.46;99542.00;110367;250;152722;-74
2023/12/14 01:12:02;;;;;;;33.80;20.30;;;;;;;3.22;94.65;99538.79;110453;252;38540;-74
2023/12/14 01:14:36;;;;;;;30.80;18.80;;;;;;;3.19;94.79;99539.38;109929;251;582617;-72
2023/12/14 01:20:39;;;;;;;35.50;19.60;;;;;;;3.19;95.24;99542.98;110671;248;38429;-74
2023/12/14 01:23:12;;;;;;;34.60;18.90;;;;;;;3.16;94.87;99548.73;110615;249;38940;-74
2023/12/14 01:25:47;;;;;;;34.30;19.30;;;;;;;3.09;94.96;99551.46;110669;249;38539;-74
2023/12/14 01:28:21;;;;;;;36.50;19.70;;;;;;;3.07;95.43;99546.17;110556;247;154268;-74
2023/12/14 01:30:56;;;;;;;33.30;18.10;;;;;;;3.05;95.33;99543.61;110720;248;39339;-73
2023/12/14 01:33:33;;;;;;;37.10;18.60;;;;;;;3.00;95.15;99542.52;110578;249;153563;-72
2023/12/14 01:36:08;;;;;;;34.30;18.70;;;;;;;2.98;95.52;99539.11;110742;249;38930;-72
2023/12/14 01:42:05;;;;;;;36.50;21.60;;;;;;;2.90;95.50;99537.03;110841;248;38936;-74
2023/12/14 01:44:39;;;;;;;35.20;19.50;;;;;;;2.85;95.59;99538.00;110716;249;38346;-72
2023/12/14 01:47:13;;;;;;;31.30;18.10;;;;;;;2.82;95.86;99539.95;110599;247;153764;-71
2023/12/14 01:49:47;;;;;;;33.90;18.20;;;;;;;2.82;96.02;99544.08;110735;249;38318;-73
2023/12/14 01:52:21;;;;;;;33.30;18.00;;;;;;;2.79;96.02;99540.20;110537;247;153551;-72
2023/12/14 01:54:58;;;;;;;33.50;19.60;;;;;;;2.79;96.21;99540.00;110685;249;38378;-74
2023/12/14 01:57:35;;;;;;;30.20;17.50;;;;;;;2.81;96.38;99544.27;110593;247;153197;-74
2023/12/14 02:00:12;;;;;;;31.20;17.40;;;;;;;2.81;96.38;99536.88;110678;249;39349;-73
2023/12/14 02:02:46;;;;;;;36.10;18.30;;;;;;;2.80;96.36;99535.35;110745;248;37881;-72
2023/12/14 02:05:20;;;;;;;33.40;18.00;;;;;;;2.77;96.17;99537.11;110658;249;38267;-74
2023/12/14 02:07:54;;;;;;;27.80;16.30;;;;;;;2.73;96.09;99538.05;110726;248;38566;-73
2023/12/14 02:10:29;;;;;;;33.00;18.00;;;;;;;2.75;96.32;99541.81;110609;247;153367;-74
2023/12/14 02:13:05;;;;;;;31.80;18.40;;;;;;;2.76;96.49;99541.45;110737;249;38938;-73
2023/12/14 02:15:40;;;;;;;32.80;18.10;;;;;;;2.77;96.48;99544.19;110531;249;153649;-75
2023/12/14 02:18:15;;;;;;;33.60;18.20;;;;;;;2.75;96.38;99536.30;110565;249;178863;-71
2023/12/14 02:20:49;;;;;;;32.20;16.70;;;;;;;2.76;96.48;99533.88;110657;249;38383;-72
2023/12/14 02:23:23;;;;;;;31.70;18.20;;;;;;;2.73;96.15;99532.20;110490;247;38753;-74
2023/12/14 02:25:58;;;;;;;28.30;17.40;;;;;;;2.70;96.28;99528.82;110630;249;38322;-73
2023/12/14 02:28:32;;;;;;;31.80;18.30;;;;;;;2.70;96.43;99523.83;110482;248;154179;-74
2023/12/14 02:31:08;;;;;;;32.60;17.80;;;;;;;2.68;96.50;99525.09;110652;249;39631;-74
2023/12/14 02:33:48;;;;;;;31.60;17.20;;;;;;;2.68;96.62;99521.80;110520;247;154292;-72
2023/12/14 02:36:24;;;;;;;30.30;17.30;;;;;;;2.68;96.62;99525.08;110580;249;38161;-73
2023/12/14 02:38:59;;;;;;;30.10;17.40;;;;;;;2.72;96.87;99522.94;110546;248;153791;-72
2023/12/14 02:41:33;;;;;;;31.40;17.90;;;;;;;2.73;96.57;99524.64;110584;249;38511;-74
2023/12/14 02:44:09;;;;;;;32.30;18.90;;;;;;;2.75;96.86;99526.98;110690;249;38552;-74
2023/12/14 02:46:43;;;;;;;30.40;17.90;;;;;;;2.76;96.79;99523.88;110471;248;153710;-73
2023/12/14 02:49:17;;;;;;;31.30;18.30;;;;;;;2.75;96.57;99528.20;110581;249;176128;-71
2023/12/14 02:51:53;;;;;;;33.20;18.00;;;;;;;2.70;96.48;99529.86;110540;247;154193;-74
2023/12/14 02:58:19;;;;;;;31.80;17.80;;;;;;;2.60;96.28;99538.15;110630;248;153976;-74
2023/12/14 03:00:55;;;;;;;32.40;18.80;;;;;;;2.61;96.62;99535.90;110611;249;38985;-74
2023/12/14 03:03:31;;;;;;;35.80;19.80;;;;;;;2.63;96.61;99540.83;110378;248;152967;-74
2023/12/14 03:06:06;;;;;;;35.40;19.70;;;;;;;2.61;96.58;99542.77;110635;249;38288;-74
2023/12/14 03:08:45;;;;;;;37.60;19.50;;;;;;;2.59;96.63;99542.64;110684;249;39496;-72
2023/12/14 03:11:33;;;;;;;33.00;17.80;;;;;;;2.56;96.71;99544.76;110060;247;38371;-70
2023/12/14 03:14:07;;;;;;;37.30;19.70;;;;;;;2.59;96.96;99545.91;110715;248;39158;-71
2023/12/14 03:16:41;;;;;;;37.20;20.00;;;;;;;2.62;96.95;99551.55;110445;248;153580;-71
2023/12/14 03:19:16;;;;;;;39.80;20.90;;;;;;;2.63;96.79;99557.36;110667;248;40064;-73
2023/12/14 03:21:52;;;;;;;36.50;20.20;;;;;;;2.62;96.74;99562.72;110601;246;153247;-72
2023/12/14 03:24:26;;;;;;;38.20;21.40;;;;;;;2.60;96.77;99561.73;110829;248;38342;-71
2023/12/14 03:27:05;;;;;;;37.30;19.60;;;;;;;2.58;96.78;99567.63;110581;246;153523;-73
2023/12/14 03:29:39;;;;;;;35.30;19.10;;;;;;;2.58;96.85;99565.91;110759;248;40026;-73
2023/12/14 03:32:15;;;;;;;35.10;20.10;;;;;;;2.56;96.86;99571.95;110735;248;38791;-74
2023/12/14 03:34:49;;;;;;;35.90;20.70;;;;;;;2.55;96.75;99572.66;110555;246;153619;-74
2023/12/14 03:37:24;;;;;;;36.10;20.20;;;;;;;2.53;96.59;99577.54;110755;247;38574;-74
2023/12/14 03:40:01;;;;;;;39.20;21.30;;;;;;;2.50;96.63;99577.06;110556;247;152655;-73
2023/12/14 03:42:36;;;;;;;41.10;21.50;;;;;;;2.46;96.83;99580.92;110705;247;38529;-73
2023/12/14 03:45:13;;;;;;;39.20;21.60;;;;;;;2.47;97.20;99581.08;110500;245;175871;-75
2023/12/14 03:47:47;;;;;;;39.50;21.30;;;;;;;2.51;97.39;99579.80;110739;247;38866;-73
2023/12/14 03:50:21;;;;;;;40.70;21.00;;;;;;;2.54;97.32;99583.52;110728;247;38520;-74
2023/12/14 03:52:55;;;;;;;40.30;21.30;;;;;;;2.56;97.37;99586.77;110618;245;153161;-74
2023/12/14 03:55:28;;;;;;;39.50;21.10;;;;;;;2.54;97.09;99588.86;110773;247;38304;-75
2023/12/14 03:58:02;;;;;;;39.80;20.20;;;;;;;2.53;97.15;99590.62;110604;245;153907;-75
2023/12/14 04:00:38;;;;;;;40.10;21.20;;;;;;;2.55;97.40;99590.90;110748;247;38365;-74
2023/12/14 04:03:15;;;;;;;40.40;20.30;;;;;;;2.56;97.10;99592.61;110794;247;38405;-74
2023/12/14 04:05:51;;;;;;;37.10;21.30;;;;;;;2.59;97.21;99593.25;110758;247;38419;-74
2023/12/14 04:08:29;;;;;;;39.70;21.60;;;;;;;2.58;97.08;99589.66;110693;247;38813;-73
2023/12/14 04:11:10;;;;;;;39.90;21.30;;;;;;;2.59;97.22;99590.67;110731;247;38282;-73
2023/12/14 04:13:50;;;;;;;39.60;20.30;;;;;;;2.58;97.15;99595.68;110737;247;39611;-73
2023/12/14 04:16:26;;;;;;;40.20;20.70;;;;;;;2.53;96.83;99598.19;110613;245;154212;-74
2023/12/14 04:19:02;;;;;;;40.40;21.10;;;;;;;2.51;97.02;99601.33;110693;247;38470;-73
2023/12/14 04:21:39;;;;;;;39.40;21.00;;;;;;;2.50;96.84;99605.29;110617;245;154974;-73
2023/12/14 04:24:14;;;;;;;40.30;20.80;;;;;;;2.51;97.00;99607.16;110687;247;39011;-73
2023/12/14 04:26:48;;;;;;;39.90;21.40;;;;;;;2.50;96.91;99612.17;110619;247;175882;-72
2023/12/14 04:29:22;;;;;;;40.50;20.40;;;;;;;2.48;96.88;99614.29;110574;245;153390;-71
2023/12/14 04:31:56;;;;;;;38.70;20.40;;;;;;;2.44;96.90;99612.27;110741;247;39477;-73
2023/12/14 04:34:29;;;;;;;40.70;20.70;;;;;;;2.43;97.02;99610.08;110633;245;154061;-73
2023/12/14 04:37:04;;;;;;;38.60;20.70;;;;;;;2.44;97.12;99611.77;110733;247;39632;-71
2023/12/14 04:39:39;;;;;;;39.50;20.40;;;;;;;2.45;97.09;99616.56;110590;245;153559;-73
2023/12/14 04:48:52;;;;;;;44.10;21.50;;;;;;;2.43;97.16;99621.94;110877;245;38428;-72
2023/12/14 04:51:27;;;;;;;39.30;20.00;;;;;;;2.46;97.65;99622.23;110659;247;38129;-73
2023/12/14 04:54:02;;;;;;;39.40;20.70;;;;;;;2.48;97.36;99625.48;110894;245;38254;-71
2023/12/14 05:00:03;;;;;;;42.70;21.60;;;;;;;2.47;97.31;99638.40;110900;245;38280;-73
2023/12/14 05:02:37;;;;;;;39.50;20.10;;;;;;;2.46;97.40;99645.63;110680;247;38351;-73
2023/12/14 05:05:12;;;;;;;43.20;21.10;;;;;;;2.46;97.38;99646.67;110637;246;153793;-74
2023/12/14 05:07:46;;;;;;;41.00;20.00;;;;;;;2.46;97.37;99648.40;110919;248;39741;-73
2023/12/14 05:10:20;;;;;;;37.70;19.20;;;;;;;2.46;97.48;99652.00;111016;248;39259;-71
2023/12/14 05:12:58;;;;;;;36.00;19.50;;;;;;;2.50;97.63;99655.58;110946;248;39908;-71
2023/12/14 05:15:32;;;;;;;37.10;20.40;;;;;;;2.50;97.55;99662.96;110944;248;38507;-73
2023/12/14 05:18:17;;;;;;;66.90;34.50;;;;;;;2.51;97.61;99665.53;110734;247;40513;-73
2023/12/14 05:20:51;;;;;;;50.80;25.90;;;;;;;2.49;97.39;99669.00;110736;248;39617;-74
2023/12/14 05:23:27;;;;;;;42.90;21.70;;;;;;;2.49;97.62;99673.83;110550;245;154083;-73
2023/12/14 05:29:25;;;;;;;38.30;20.40;;;;;;;2.48;97.43;99684.17;110921;246;38314;-73
2023/12/14 05:32:00;;;;;;;40.10;20.10;;;;;;;2.53;97.70;99688.22;110876;247;39658;-73
2023/12/14 05:34:34;;;;;;;39.70;21.10;;;;;;;2.56;97.56;99691.10;110587;247;153248;-73
2023/12/14 05:37:08;;;;;;;41.50;21.60;;;;;;;2.55;97.33;99695.24;110825;248;38263;-72
2023/12/14 05:39:45;;;;;;;41.00;20.70;;;;;;;2.53;97.37;99699.41;110960;248;38231;-73
2023/12/14 05:45:42;;;;;;;41.50;20.20;;;;;;;2.45;97.30;99711.59;110801;248;40217;-73
2023/12/14 05:48:17;;;;;;;40.00;20.60;;;;;;;2.44;97.37;99712.13;110683;248;38659;-73
2023/12/14 05:50:52;;;;;;;44.20;23.50;;;;;;;2.47;97.61;99714.84;110764;248;38579;-73
2023/12/14 05:53:26;;;;;;;45.70;22.00;;;;;;;2.51;97.91;99717.36;110756;248;38600;-70
2023/12/14 05:56:00;;;;;;;44.20;22.30;;;;;;;2.53;97.69;99721.27;110669;248;38377;-72
2023/12/14 05:58:35;;;;;;;48.50;24.40;;;;;;;2.51;97.52;99723.40;110560;246;154235;-72
2023/12/14 06:04:51;;;;;;;44.20;20.50;;;;;;;2.47;97.47;99735.99;110719;246;153833;-73
2023/12/14 06:07:26;;;;;;;50.50;24.80;;;;;;;2.50;97.79;99737.69;110820;246;38239;-74
2023/12/14 06:10:01;;;;;;;47.90;24.10;;;;;;;2.53;97.91;99741.60;110656;243;153287;-73
2023/12/14 06:12:35;;;;;;;47.00;23.00;;;;;;;2.56;97.97;99741.21;110788;247;38083;-73
2023/12/14 06:15:11;;;;;;;47.30;23.40;;;;;;;2.56;97.94;99746.36;110892;246;39710;-75
2023/12/14 06:17:45;;;;;;;42.00;20.80;;;;;;;2.54;97.51;99747.96;110639;245;153899;-74
2023/12/14 06:20:20;;;;;;;43.60;22.50;;;;;;;2.50;97.39;99754.04;110912;246;39297;-73
2023/12/14 06:22:54;;;;;;;61.20;26.50;;;;;;;2.53;97.69;99757.09;110739;246;38796;-74
2023/12/14 06:25:29;;;;;;;54.20;26.30;;;;;;;2.57;97.74;99755.48;110765;247;175894;-72
2023/12/14 06:28:03;;;;;;;47.60;22.90;;;;;;;2.57;97.42;99761.51;110757;245;154619;-72
2023/12/14 06:30:37;;;;;;;48.90;23.50;;;;;;;2.54;97.22;99762.24;110807;247;38499;-73
2023/12/14 06:33:14;;;;;;;44.10;21.60;;;;;;;2.49;97.14;99766.27;110925;246;38332;-73
2023/12/14 06:35:49;;;;;;;38.50;19.60;;;;;;;2.45;97.12;99770.48;110605;244;153851;-74
2023/12/14 06:38:24;;;;;;;41.20;21.20;;;;;;;2.39;96.95;99772.28;110885;246;39476;-74
2023/12/14 06:40:58;;;;;;;42.90;20.60;;;;;;;2.34;97.06;99777.52;110647;245;153825;-74
2023/12/14 06:43:32;;;;;;;43.80;22.10;;;;;;;2.35;97.33;99778.71;110888;246;38355;-74
2023/12/14 06:49:30;;;;;;;42.50;21.70;;;;;;;2.41;97.88;99783.27;110891;246;38325;31
2023/12/14 06:52:05;;;;;;;44.00;22.60;;;;;;;2.43;97.87;99779.80;110694;249;39680;-74
2023/12/14 06:54:39;;;;;;;41.50;21.00;;;;;;;2.38;97.50;99784.88;110597;249;39729;-74
2023/12/14 06:57:13;;;;;;;35.40;19.40;;;;;;;2.37;97.51;99786.25;110724;249;38381;-73
2023/12/14 06:59:47;;;;;;;38.30;19.60;;;;;;;2.37;97.50;99791.24;110392;249;153950;-73
2023/12/14 07:02:21;;;;;;;44.30;21.90;;;;;;;2.38;97.53;99792.79;110715;249;39625;-72
2023/12/14 07:04:55;;;;;;;44.10;22.70;;;;;;;2.39;97.47;99797.91;110560;247;153185;-74
2023/12/14 07:07:29;;;;;;;45.60;23.00;;;;;;;2.40;97.65;99799.45;110664;249;38681;-73
2023/12/14 07:10:04;;;;;;;43.90;22.60;;;;;;;2.40;97.68;99800.32;110730;249;39459;-73
2023/12/14 07:12:38;;;;;;;45.80;21.70;;;;;;;2.38;97.59;99801.73;110558;250;39288;-73
2023/12/14 07:15:13;;;;;;;45.80;22.50;;;;;;;2.35;97.44;99801.42;110695;248;39308;-73
2023/12/14 07:17:47;;;;;;;41.40;21.20;;;;;;;2.35;97.55;99804.52;110569;247;154146;-74
2023/12/14 07:27:07;;;;;;;41.60;20.40;;;;;;;2.45;98.17;99807.81;110829;246;38386;-73
2023/12/14 07:29:42;;;;;;;46.50;23.60;;;;;;;2.48;98.23;99814.16;110080;247;913312;-73
2023/12/14 07:32:16;;;;;;;45.00;21.60;;;;;;;2.52;98.26;99814.97;110751;247;38403;-73
2023/12/14 07:34:50;;;;;;;37.60;20.50;;;;;;;2.50;97.71;99823.58;110601;245;153839;-73
2023/12/14 07:37:24;;;;;;;40.40;21.90;;;;;;;2.47;97.45;99823.98;110760;247;38198;-71
2023/12/14 07:39:59;;;;;;;42.60;22.00;;;;;;;2.43;97.41;99823.34;110708;247;39412;-73
2023/12/14 07:42:33;;;;;;;42.40;21.50;;;;;;;2.39;97.49;99826.51;110644;246;153593;-72
2023/12/14 07:45:10;;;;;;;47.60;22.70;;;;;;;2.40;97.61;99826.31;110722;247;38300;-72
2023/12/14 07:47:45;;;;;;;39.60;21.80;;;;;;;2.43;97.82;99824.55;110531;249;153727;-75
2023/12/14 07:50:19;;;;;;;42.20;22.50;;;;;;;2.46;97.82;99824.34;110937;245;39501;-75
2023/12/14 07:52:53;;;;;;;38.90;22.10;;;;;;;2.48;97.80;99825.16;110800;244;153419;-74
2023/12/14 07:55:27;;;;;;;39.30;22.00;;;;;;;2.47;97.61;99833.11;110882;245;39183;-73
2023/12/14 07:58:03;;;;;;;38.90;20.20;;;;;;;2.45;97.49;99838.30;110972;245;39496;-74
2023/12/14 08:00:37;;;;;;;34.10;19.00;;;;;;;2.42;97.26;99841.61;110876;243;154698;-74
2023/12/14 08:03:11;;;;;;;36.40;19.20;;;;;;;2.37;97.14;99846.15;110952;245;38803;-74
2023/12/14 08:05:45;;;;;;;32.00;18.50;;;;;;;2.37;97.30;99853.22;110807;244;153986;-74
2023/12/14 08:08:19;;;;;;;33.50;19.30;;;;;;;2.42;97.67;99858.65;110947;245;38910;-74
2023/12/14 08:10:53;;;;;;;37.10;20.20;;;;;;;2.49;98.03;99860.97;110846;244;153433;-70
2023/12/14 08:13:27;;;;;;;40.80;22.30;;;;;;;2.51;97.84;99861.46;110240;245;926365;-73
2023/12/14 08:16:01;;;;;;;36.50;20.20;;;;;;;2.52;97.75;99865.92;110969;245;38236;-74
2023/12/14 08:18:35;;;;;;;40.20;19.50;;;;;;;2.49;97.40;99868.71;110780;243;154031;-73
2023/12/14 08:21:11;;;;;;;40.20;20.00;;;;;;;2.46;97.36;99870.47;110952;245;40466;-74
2023/12/14 08:23:45;;;;;;;36.40;19.80;;;;;;;2.48;97.66;99878.37;110667;244;154111;-73
2023/12/14 08:33:08;;;;;;;44.70;21.30;;;;;;;2.47;97.58;99900.08;111152;243;38294;-74
2023/12/14 08:35:42;;;;;;;40.00;20.80;;;;;;;2.45;97.60;99906.13;110925;242;153790;-74
2023/12/14 08:38:18;;;;;;;40.90;19.50;;;;;;;2.43;97.55;99908.56;110970;244;38601;-72
2023/12/14 08:40:52;;;;;;;42.60;21.50;;;;;;;2.43;97.67;99910.27;110895;241;154145;-73
2023/12/14 08:43:29;;;;;;;41.90;22.60;;;;;;;2.46;97.88;99911.61;111100;243;39686;-74
2023/12/14 08:46:03;;;;;;;43.10;23.10;;;;;;;2.47;98.07;99916.09;111154;243;39498;-75
2023/12/14 08:48:39;;;;;;;40.40;19.90;;;;;;;2.49;98.10;99919.49;110837;243;177140;-73
2023/12/14 08:51:13;;;;;;;38.90;19.10;;;;;;;2.47;97.78;99922.81;110982;244;39503;-74
2023/12/14 08:53:47;;;;;;;39.00;19.40;;;;;;;2.44;97.72;99927.66;110857;242;154023;-74
2023/12/14 08:56:22;;;;;;;38.50;19.40;;;;;;;2.45;97.81;99929.70;111020;244;38260;-73
2023/12/14 09:02:48;;;;;;;39.30;19.40;;;;;;;2.49;98.02;99931.38;111056;242;38975;-73
2023/12/14 09:05:23;;;;;;;36.90;19.70;;;;;;;2.50;97.93;99929.65;110723;242;175879;-73
2023/12/14 09:07:59;;;;;;;38.90;18.20;;;;;;;2.52;98.06;99939.80;110961;245;38273;-73
2023/12/14 09:10:33;;;;;;;41.00;19.80;;;;;;;2.55;98.14;99941.46;110945;245;38264;-71
2023/12/14 09:13:07;;;;;;;39.70;20.10;;;;;;;2.58;98.09;99942.47;110935;244;39465;-71
2023/12/14 09:15:41;;;;;;;39.40;20.10;;;;;;;2.60;98.06;99947.44;110315;244;832086;-73
2023/12/14 09:18:15;;;;;;;43.60;22.30;;;;;;;2.61;98.03;99947.42;110766;244;152988;-71
2023/12/14 09:21:07;;;;;;;40.80;21.00;;;;;;;2.60;97.88;99948.82;110849;244;173104;-72
2023/12/14 09:23:42;;;;;;;44.40;20.80;;;;;;;2.59;97.93;99952.61;110614;245;175843;-72
2023/12/14 09:26:17;;;;;;;40.10;19.70;;;;;;;2.57;97.87;99952.80;110780;247;38650;-73
2023/12/14 09:28:51;;;;;;;41.60;20.50;;;;;;;2.59;98.03;99953.81;109932;245;912845;-74
2023/12/14 09:31:25;;;;;;;46.20;23.40;;;;;;;2.65;98.30;99960.29;110790;247;38779;-74
2023/12/14 09:33:59;;;;;;;44.00;23.40;;;;;;;2.70;98.45;99959.54;110810;247;38304;-72
2023/12/14 09:36:33;;;;;;;41.30;21.20;;;;;;;2.70;98.18;99961.25;110582;245;153151;-73
2023/12/14 09:39:10;;;;;;;39.10;19.90;;;;;;;2.72;98.35;99963.98;110806;247;38790;-73
2023/12/14 09:41:45;;;;;;;38.10;18.50;;;;;;;2.72;98.06;99969.34;110655;247;154144;-72
2023/12/14 09:44:20;;;;;;;37.40;18.60;;;;;;;2.73;98.04;99969.14;110826;247;38311;-73
2023/12/14 09:46:54;;;;;;;36.50;18.90;;;;;;;2.74;97.87;99970.85;110672;245;154201;-74
2023/12/14 09:49:29;;;;;;;36.30;19.50;;;;;;;2.76;97.86;99969.45;110724;247;38051;-74
2023/12/14 09:52:03;;;;;;;36.00;19.50;;;;;;;2.76;97.73;99967.73;110836;247;38271;-75
2023/12/14 09:54:37;;;;;;;37.30;18.80;;;;;;;2.74;97.58;99970.51;110617;245;153343;-74
2023/12/14 09:57:11;;;;;;;35.20;18.80;;;;;;;2.72;97.46;99972.60;110838;247;38461;-75
2023/12/14 09:59:53;;;;;;;31.80;18.00;;;;;;;2.70;97.35;99969.71;110867;247;38341;-74
2023/12/14 10:02:29;;;;;;;33.70;17.20;;;;;;;2.66;97.28;99974.40;110969;242;38416;-75
2023/12/14 10:05:04;;;;;;;38.20;19.30;;;;;;;2.65;97.31;99978.71;110807;244;155339;-74
2023/12/14 10:07:42;;;;;;;32.80;19.00;;;;;;;2.66;97.37;99980.77;111048;244;38441;-72
2023/12/14 10:10:16;;;;;;;33.00;19.00;;;;;;;2.67;97.63;99979.23;110774;246;38917;-73
2023/12/14 10:12:57;;;;;;;39.20;20.90;;;;;;;2.69;97.74;99976.94;110623;244;154197;-73
2023/12/14 10:15:49;;;;;;;35.30;18.70;;;;;;;2.67;97.71;99972.85;110619;246;190954;-73
2023/12/14 10:18:29;;;;;;;34.80;18.50;;;;;;;2.67;97.70;99970.94;110997;246;38375;-74
2023/12/14 10:21:09;;;;;;;37.90;18.80;;;;;;;2.68;97.78;99970.94;111001;246;39309;-74
2023/12/14 10:23:46;;;;;;;38.40;20.50;;;;;;;2.71;97.88;99971.23;110594;246;153560;-73
2023/12/14 10:26:20;;;;;;;38.30;20.40;;;;;;;2.71;97.74;99976.41;110728;246;38963;-72
2023/12/14 10:28:55;;;;;;;44.60;22.30;;;;;;;2.71;97.87;99975.20;110832;245;153483;-72
2023/12/14 10:31:30;;;;;;;37.80;20.20;;;;;;;2.72;97.97;99980.00;110911;246;39800;-73
2023/12/14 10:34:04;;;;;;;54.00;26.80;;;;;;;2.75;98.12;99979.61;110954;246;40619;-73
2023/12/14 10:36:39;;;;;;;38.00;21.40;;;;;;;2.76;98.00;99985.64;110744;244;155216;-73
2023/12/14 10:39:13;;;;;;;37.20;19.50;;;;;;;2.78;98.12;99985.45;110684;246;40315;-73
2023/12/14 10:41:48;;;;;;;39.80;19.90;;;;;;;2.80;98.06;99986.80;110803;244;153633;-72
2023/12/14 10:44:22;;;;;;;37.60;19.00;;;;;;;2.78;97.88;99990.09;110894;245;38942;-72
2023/12/14 10:46:57;;;;;;;34.90;17.80;;;;;;;2.74;97.70;99989.46;110804;245;153794;-71
2023/12/14 10:53:13;;;;;;;30.80;17.70;;;;;;;2.76;98.04;99997.20;110922;244;175849;-73
2023/12/14 10:55:47;;;;;;;30.80;16.80;;;;;;;2.83;98.29;100003.29;110943;245;38912;-72
2023/12/14 10:58:22;;;;;;;34.60;18.70;;;;;;;2.84;97.89;100003.80;110950;245;38862;-73
2023/12/14 11:01:03;;;;;;;34.40;19.40;;;;;;;2.84;98.00;100010.69;110832;244;153470;-73
2023/12/14 11:03:40;;;;;;;35.00;18.00;;;;;;;2.84;97.89;100012.06;110973;245;38719;-73
2023/12/14 11:06:31;;;;;;;31.20;17.30;;;;;;;2.82;97.77;100016.23;110846;243;154079;-71
2023/12/14 11:09:07;;;;;;;34.30;18.20;;;;;;;2.83;97.81;100022.25;110997;245;38361;-73
2023/12/14 11:11:48;;;;;;;35.10;19.20;;;;;;;2.85;97.97;100026.00;110861;243;153926;-72
2023/12/14 11:14:23;;;;;;;32.60;18.60;;;;;;;2.88;97.91;100032.17;110959;245;39607;-72
2023/12/14 11:17:03;;;;;;;32.20;19.60;;;;;;;2.90;98.09;100033.00;110816;243;153756;-71
2023/12/14 11:19:39;;;;;;;32.80;19.10;;;;;;;2.89;97.81;100034.40;111052;245;38588;-73
2023/12/14 11:22:27;;;;;;;30.60;17.60;;;;;;;2.89;97.74;100039.92;110920;245;38850;-73
2023/12/14 11:25:01;;;;;;;27.40;15.60;;;;;;;2.91;97.86;100036.98;110781;243;175852;-73
2023/12/14 11:28:15;;;;;;;29.00;16.10;;;;;;;2.95;97.70;100038.81;110937;245;38252;-73
2023/12/14 11:30:50;;;;;;;29.90;16.90;;;;;;;2.92;97.55;100040.57;110691;245;175801;-73
2023/12/14 11:33:24;;;;;;;30.40;17.50;;;;;;;2.94;97.72;100046.75;110971;245;38849;-72
2023/12/14 11:35:58;;;;;;;30.30;16.80;;;;;;;2.92;97.58;100042.29;110774;244;153821;-73
2023/12/14 11:38:32;;;;;;;33.20;16.70;;;;;;;2.91;97.58;100044.55;110912;246;39603;-72
2023/12/14 11:41:07;;;;;;;28.70;15.80;;;;;;;2.91;97.66;100050.59;110793;244;154289;-73
2023/12/14 11:43:48;;;;;;;30.70;16.40;;;;;;;2.90;97.48;100050.59;110895;246;38508;-73
2023/12/14 11:46:22;;;;;;;30.60;17.60;;;;;;;2.89;97.59;100058.70;110712;246;39520;-73
2023/12/14 11:48:57;;;;;;;27.50;15.60;;;;;;;2.85;97.40;100058.23;110743;244;154298;-71
2023/12/14 11:51:31;;;;;;;23.30;14.60;;;;;;;2.82;97.67;100060.50;110957;245;38518;-72
2023/12/14 11:54:06;;;;;;;25.10;14.30;;;;;;;2.82;97.58;100059.46;110783;244;155110;-72
2023/12/14 11:56:40;;;;;;;24.40;14.00;;;;;;;2.82;97.62;100061.02;110895;246;38637;-72
2023/12/14 11:59:18;;;;;;;24.60;14.70;;;;;;;2.83;97.60;100062.72;110816;245;154125;-72
2023/12/14 12:02:03;;;;;;;25.20;14.20;;;;;;;2.84;97.55;100068.40;110867;245;38793;-69
2023/12/14 12:04:37;;;;;;;24.90;14.00;;;;;;;2.83;97.61;100066.52;110993;246;38323;-70
2023/12/14 12:10:35;;;;;;;27.00;14.60;;;;;;;2.81;97.62;100068.95;111080;243;38425;-71
2023/12/14 12:13:14;;;;;;;25.10;14.70;;;;;;;2.83;97.69;100068.42;110894;241;154209;-73
2023/12/14 12:15:48;;;;;;;23.70;14.60;;;;;;;2.86;97.84;100069.59;111172;243;40126;-71
2023/12/14 12:18:22;;;;;;;22.80;14.20;;;;;;;2.89;97.73;100075.41;110926;242;154265;-71
2023/12/14 12:21:03;;;;;;;27.30;16.10;;;;;;;2.88;97.49;100072.67;110976;245;38617;-72
2023/12/14 12:23:38;;;;;;;27.30;14.80;;;;;;;2.92;97.79;100076.59;110809;243;155115;-72
2023/12/14 12:26:12;;;;;;;24.00;14.20;;;;;;;2.92;97.48;100082.27;110981;244;40095;-74
2023/12/14 12:28:47;;;;;;;24.70;13.70;;;;;;;2.90;97.19;100089.36;110957;244;39936;-73
2023/12/14 12:35:13;;;;;;;28.30;16.70;;;;;;;2.83;96.99;100102.00;110955;242;155398;-72
2023/12/14 12:37:53;;;;;;;30.80;17.70;;;;;;;2.84;97.04;100105.44;111084;244;38703;-70
2023/12/14 12:40:27;;;;;;;31.80;18.00;;;;;;;2.82;96.90;100102.53;111202;244;38315;-72
2023/12/14 12:43:02;;;;;;;33.10;18.60;;;;;;;2.78;96.84;100103.27;110854;242;154268;-72
2023/12/14 12:45:36;;;;;;;31.00;17.30;;;;;;;2.73;96.81;100102.45;111181;243;38343;-72
2023/12/14 12:48:10;;;;;;;30.00;16.20;;;;;;;2.71;96.94;100107.13;110894;241;154297;-72
2023/12/14 12:50:44;;;;;;;30.50;17.60;;;;;;;2.68;96.87;100104.92;111152;243;38487;-71
2023/12/14 12:53:18;;;;;;;28.50;17.00;;;;;;;2.68;96.85;100106.14;111026;242;154261;-71
2023/12/14 12:55:52;;;;;;;29.00;16.60;;;;;;;2.68;97.03;100111.30;111030;244;38584;-72
2023/12/14 12:58:26;;;;;;;34.40;18.90;;;;;;;2.66;96.98;100112.17;111029;244;38477;-72
2023/12/14 13:00:59;;;;;;;31.40;18.70;;;;;;;2.67;97.19;100119.05;110856;243;153348;-73
2023/12/14 13:03:33;;;;;;;34.30;18.00;;;;;;;2.66;97.31;100118.38;110995;243;39441;-73
2023/12/14 13:06:08;;;;;;;31.30;17.10;;;;;;;2.64;97.31;100124.59;110869;243;155141;-73
2023/12/14 13:08:42;;;;;;;33.20;18.10;;;;;;;2.64;97.38;100122.53;110978;244;38412;-72
2023/12/14 13:11:16;;;;;;;32.80;19.20;;;;;;;2.64;97.36;100121.14;110903;241;154245;-70